Time;durP1;ratioP1;P1;durP2;ratioP2;P2;SDS_P1;SDS_P2;PMS_P1;PMS_P2;Temp;Humidity;BMP_temperature;BMP_pressure;BME280_temperature;BME280_humidity;BME280_pressure;Samples;Min_cycle;Max_cycle;Signal;HPM_P1;HPM_P2
2024/02/08 00:02:41;;;;;;;18.70;13.45;;;;;;;;;;10284533;28;20034;-53
2024/02/08 00:07:42;;;;;;;19.08;13.57;;;;;;;;;;10285614;28;20034;-54
2024/02/08 00:12:43;;;;;;;17.02;13.95;;;;;;;;;;10285964;28;20383;-55
2024/02/08 00:17:46;;;;;;;20.20;14.15;;;;;;;;;;10285250;28;20037;-55
2024/02/08 00:22:49;;;;;;;18.75;13.93;;;;;;;;;;10286011;28;20034;-54
2024/02/08 00:27:53;;;;;;;20.33;12.90;;;;;;;;;;10276351;28;20030;-53
2024/02/08 00:32:53;;;;;;;20.52;13.68;;;;;;;;;;10285277;28;20062;-53
2024/02/08 00:37:54;;;;;;;17.83;12.90;;;;;;;;;;10284150;28;20046;-50
2024/02/08 00:42:55;;;;;;;18.55;13.48;;;;;;;;;;10284595;28;20053;-52
2024/02/08 00:47:57;;;;;;;17.55;13.27;;;;;;;;;;10284669;28;20086;-53
2024/02/08 00:52:59;;;;;;;18.20;13.35;;;;;;;;;;10285720;28;20023;-53
2024/02/08 00:58:02;;;;;;;18.83;13.02;;;;;;;;;;10285464;28;20186;-52
2024/02/08 01:03:07;;;;;;;16.45;12.88;;;;;;;;;;10283981;28;20490;-54
2024/02/08 01:08:08;;;;;;;18.90;12.98;;;;;;;;;;10291952;28;20475;-53
2024/02/08 01:13:08;;;;;;;19.92;12.63;;;;;;;;;;10292363;28;20277;-54
2024/02/08 01:18:10;;;;;;;19.08;12.02;;;;;;;;;;10293076;28;20250;-51
2024/02/08 01:23:10;;;;;;;18.42;12.77;;;;;;;;;;10292264;28;20410;-53
2024/02/08 01:28:12;;;;;;;15.38;12.45;;;;;;;;;;10292004;28;20035;-54
2024/02/08 01:33:12;;;;;;;18.00;12.25;;;;;;;;;;10291482;28;20117;-53
2024/02/08 01:38:16;;;;;;;18.30;12.52;;;;;;;;;;10291134;28;20055;-51
2024/02/08 01:43:17;;;;;;;20.27;13.27;;;;;;;;;;10291325;28;20039;-53
2024/02/08 01:48:18;;;;;;;17.33;11.65;;;;;;;;;;10291527;28;20034;-52
2024/02/08 01:53:27;;;;;;;18.40;12.30;;;;;;;;;;10290856;28;20434;-53
2024/02/08 01:58:30;;;;;;;16.45;11.50;;;;;;;;;;10316958;28;20057;-53
2024/02/08 02:03:31;;;;;;;16.17;12.35;;;;;;;;;;10336339;28;20030;-52
2024/02/08 02:08:33;;;;;;;16.15;11.90;;;;;;;;;;10320139;28;20034;-53
2024/02/08 02:13:38;;;;;;;16.48;12.02;;;;;;;;;;10327020;28;20450;-53
2024/02/08 02:18:39;;;;;;;18.05;12.25;;;;;;;;;;10324638;28;20499;-52
2024/02/08 02:23:41;;;;;;;16.10;11.40;;;;;;;;;;10315452;28;20034;-53
2024/02/08 02:28:43;;;;;;;16.75;11.68;;;;;;;;;;10325656;28;20355;-54
2024/02/08 02:33:44;;;;;;;17.80;10.77;;;;;;;;;;10325759;28;20373;-53
2024/02/08 02:38:45;;;;;;;14.90;11.95;;;;;;;;;;10304651;28;20043;-57
2024/02/08 02:43:45;;;;;;;14.43;10.68;;;;;;;;;;10326431;28;20039;-54
2024/02/08 02:48:46;;;;;;;15.20;10.95;;;;;;;;;;10300057;28;20031;-52
2024/02/08 02:53:47;;;;;;;15.07;11.60;;;;;;;;;;10305231;28;20022;-53
2024/02/08 02:58:47;;;;;;;15.50;11.32;;;;;;;;;;10310748;28;20030;-53
2024/02/08 03:03:48;;;;;;;14.70;11.10;;;;;;;;;;10323940;28;20493;-53
2024/02/08 03:08:49;;;;;;;12.82;10.63;;;;;;;;;;10318910;28;20459;-53
2024/02/08 03:13:50;;;;;;;15.32;11.93;;;;;;;;;;10311437;28;20014;-52
2024/02/08 03:18:50;;;;;;;15.13;11.38;;;;;;;;;;10324073;28;20421;-52
2024/02/08 03:23:56;;;;;;;13.55;10.52;;;;;;;;;;10325399;28;20386;-53
2024/02/08 03:28:56;;;;;;;13.77;10.77;;;;;;;;;;10317721;28;20026;-54
2024/02/08 03:33:57;;;;;;;15.88;10.85;;;;;;;;;;10324182;28;20513;-53
2024/02/08 03:38:59;;;;;;;15.68;10.90;;;;;;;;;;10323281;28;20046;-54
2024/02/08 03:44:02;;;;;;;18.38;11.73;;;;;;;;;;10323142;28;20501;-53
2024/02/08 03:49:05;;;;;;;14.35;11.10;;;;;;;;;;10308999;28;20283;-54
2024/02/08 03:54:08;;;;;;;15.13;11.60;;;;;;;;;;10310397;28;20708;-54
2024/02/08 03:59:11;;;;;;;14.88;10.82;;;;;;;;;;10318860;28;20502;-52
2024/02/08 04:04:12;;;;;;;15.13;10.63;;;;;;;;;;10322639;28;20034;-53
2024/02/08 04:09:17;;;;;;;15.65;10.52;;;;;;;;;;10316023;28;20026;-53
2024/02/08 04:57:07;;;;;;;12.23;9.95;;;;;;;;;;10309591;28;20023;-54
2024/02/08 05:02:09;;;;;;;15.82;10.02;;;;;;;;;;10316778;28;20490;-51
2024/02/08 05:07:10;;;;;;;14.40;10.65;;;;;;;;;;10318091;28;20081;-54
2024/02/08 05:12:10;;;;;;;12.10;9.60;;;;;;;;;;10320353;28;20458;-54
2024/02/08 05:17:13;;;;;;;12.77;10.23;;;;;;;;;;10320203;28;20030;-54
2024/02/08 05:22:14;;;;;;;13.57;10.13;;;;;;;;;;10321437;28;20080;-53
2024/02/08 05:27:15;;;;;;;13.38;10.20;;;;;;;;;;10321604;28;20232;-54
2024/02/08 05:32:15;;;;;;;12.48;9.93;;;;;;;;;;10320569;28;20019;-54
2024/02/08 05:37:16;;;;;;;14.30;10.85;;;;;;;;;;10320230;28;20053;-55
2024/02/08 05:42:17;;;;;;;13.88;10.80;;;;;;;;;;10317219;28;20034;-51
2024/02/08 05:47:26;;;;;;;13.50;10.85;;;;;;;;;;10298231;28;20130;-53
2024/02/08 05:52:31;;;;;;;14.55;10.15;;;;;;;;;;10308935;28;20030;-50
2024/02/08 05:57:32;;;;;;;13.68;9.82;;;;;;;;;;10291527;28;20066;-54
2024/02/08 06:02:35;;;;;;;13.55;10.95;;;;;;;;;;10292815;28;20039;-54
2024/02/08 06:07:36;;;;;;;15.15;10.60;;;;;;;;;;10310346;28;20042;-53
2024/02/08 06:12:42;;;;;;;15.50;10.18;;;;;;;;;;10301499;28;20462;-52
2024/02/08 06:17:45;;;;;;;13.20;10.70;;;;;;;;;;10326716;28;20161;-51
2024/02/08 06:22:48;;;;;;;12.75;10.50;;;;;;;;;;10302770;28;20110;-53
2024/02/08 06:27:50;;;;;;;14.13;10.05;;;;;;;;;;10288983;28;20038;-53
2024/02/08 06:33:07;;;;;;;13.93;10.20;;;;;;;;;;10307383;28;20466;-50
2024/02/08 06:38:13;;;;;;;15.77;10.20;;;;;;;;;;10311603;28;20046;-52
2024/02/08 07:41:34;;;;;;;49.50;22.40;;;;;;;;;;10323315;28;20034;-61
2024/02/08 07:46:40;;;;;;;46.72;23.02;;;;;;;;;;10322908;28;20030;-53
2024/02/08 07:51:50;;;;;;;36.33;22.25;;;;;;;;;;10309937;28;20030;-53
2024/02/08 07:56:53;;;;;;;37.22;22.15;;;;;;;;;;10322698;28;20030;-60
2024/02/08 08:01:57;;;;;;;40.28;22.55;;;;;;;;;;10318131;28;20073;-56
2024/02/08 08:07:00;;;;;;;42.20;22.42;;;;;;;;;;10318562;28;20026;-51
2024/02/08 08:12:04;;;;;;;43.85;21.50;;;;;;;;;;10316923;28;20031;-49
2024/02/08 08:17:31;;;;;;;39.15;21.70;;;;;;;;;;10316296;28;20037;-53
2024/02/08 08:27:32;;;;;;;32.33;20.73;;;;;;;;;;10314730;28;20029;-49
2024/02/08 08:37:40;;;;;;;36.42;19.92;;;;;;;;;;10321290;28;20038;-49
2024/02/08 08:42:42;;;;;;;32.80;19.20;;;;;;;;;;10309002;28;20062;-49
2024/02/08 08:47:43;;;;;;;34.42;19.70;;;;;;;;;;10309480;28;20031;-52
2024/02/08 08:52:49;;;;;;;31.38;20.25;;;;;;;;;;10309092;28;20026;-59
2024/02/08 08:58:00;;;;;;;29.05;19.35;;;;;;;;;;10315881;28;20023;-52
2024/02/08 09:03:04;;;;;;;30.33;19.52;;;;;;;;;;10304333;28;20069;-54
2024/02/08 09:08:08;;;;;;;35.55;19.48;;;;;;;;;;10316403;28;20035;-51
2024/02/08 09:13:18;;;;;;;34.58;19.33;;;;;;;;;;10298529;28;20487;-52
2024/02/08 09:18:19;;;;;;;30.65;19.67;;;;;;;;;;10308696;28;20541;-51
2024/02/08 09:23:25;;;;;;;34.85;19.08;;;;;;;;;;10309260;28;20030;-50
2024/02/08 09:28:27;;;;;;;30.27;19.08;;;;;;;;;;10326701;28;20026;-57
2024/02/08 09:33:30;;;;;;;31.55;18.88;;;;;;;;;;10304933;28;20065;-49
2024/02/08 09:38:42;;;;;;;32.42;18.58;;;;;;;;;;10327144;28;20436;-51
2024/02/08 09:43:45;;;;;;;30.73;19.05;;;;;;;;;;10294410;28;20453;-52
2024/02/08 09:48:51;;;;;;;27.02;19.05;;;;;;;;;;10316904;28;20484;-53
2024/02/08 09:53:52;;;;;;;29.40;17.73;;;;;;;;;;10328350;28;20027;-56
2024/02/08 09:58:56;;;;;;;28.20;18.35;;;;;;;;;;10317499;28;20026;-53
2024/02/08 10:04:05;;;;;;;28.73;19.00;;;;;;;;;;10318028;28;20030;-52
2024/02/08 10:09:33;;;;;;;25.85;17.95;;;;;;;;;;10325439;28;20034;-53
2024/02/08 10:14:33;;;;;;;27.33;18.45;;;;;;;;;;10314435;28;20034;-51
2024/02/08 10:19:47;;;;;;;27.67;19.65;;;;;;;;;;10326688;28;20387;-53
2024/02/08 10:29:52;;;;;;;24.75;17.65;;;;;;;;;;10314351;28;20033;-52
2024/02/08 10:35:13;;;;;;;37.88;17.70;;;;;;;;;;10305613;28;20033;-52
2024/02/08 10:40:32;;;;;;;30.90;19.38;;;;;;;;;;10326239;28;20138;-52
2024/02/08 10:45:43;;;;;;;30.35;19.17;;;;;;;;;;10318517;28;20137;-49
2024/02/08 10:50:49;;;;;;;29.23;19.15;;;;;;;;;;10323417;28;20034;-51
2024/02/08 10:55:56;;;;;;;26.48;18.20;;;;;;;;;;10316082;28;20022;-61
2024/02/08 11:06:34;;;;;;;29.60;18.65;;;;;;;;;;10297500;28;20662;-58
2024/02/08 11:11:40;;;;;;;26.98;17.40;;;;;;;;;;10330935;28;21289;-53
2024/02/08 11:16:42;;;;;;;23.67;17.25;;;;;;;;;;10300017;28;20126;-51
2024/02/08 11:21:43;;;;;;;29.98;18.17;;;;;;;;;;10324627;28;20034;-52
2024/02/08 11:26:54;;;;;;;27.83;18.65;;;;;;;;;;10312151;28;20026;-54
2024/02/08 11:31:56;;;;;;;28.85;17.02;;;;;;;;;;10299912;28;20494;-51
2024/02/08 11:36:58;;;;;;;29.88;18.80;;;;;;;;;;10313026;23;20133;-59
2024/02/08 11:42:00;;;;;;;26.73;17.75;;;;;;;;;;10272701;28;20030;-59
2024/02/08 11:47:17;;;;;;;25.35;17.88;;;;;;;;;;10265640;28;20027;-59
2024/02/08 11:52:19;;;;;;;26.58;17.15;;;;;;;;;;10245884;28;20035;-59
2024/02/08 11:57:21;;;;;;;23.77;18.00;;;;;;;;;;10246252;28;20058;-58
2024/02/08 12:02:27;;;;;;;23.00;17.42;;;;;;;;;;10245036;28;20042;-58
2024/02/08 12:07:28;;;;;;;28.73;17.13;;;;;;;;;;10259333;28;20111;-59
2024/02/08 12:12:30;;;;;;;25.83;16.55;;;;;;;;;;10245006;28;20027;-59
2024/02/08 12:17:31;;;;;;;23.45;16.33;;;;;;;;;;10244150;28;20549;-59
2024/02/08 12:22:32;;;;;;;24.15;17.15;;;;;;;;;;10245039;28;20027;-59
2024/02/08 12:27:34;;;;;;;25.73;18.33;;;;;;;;;;10244860;28;20031;-59
2024/02/08 12:32:35;;;;;;;24.25;18.15;;;;;;;;;;10244834;28;20023;-59
2024/02/08 12:37:36;;;;;;;25.38;18.02;;;;;;;;;;10242355;28;20039;-59
2024/02/08 12:42:39;;;;;;;26.10;18.00;;;;;;;;;;10245278;28;20046;-59
2024/02/08 12:47:40;;;;;;;25.73;18.92;;;;;;;;;;10235304;28;20039;-59
2024/02/08 12:52:41;;;;;;;25.38;19.08;;;;;;;;;;10244459;28;20058;-59
2024/02/08 12:57:41;;;;;;;27.65;18.60;;;;;;;;;;10241050;28;20051;-59
2024/02/08 13:02:42;;;;;;;29.58;19.58;;;;;;;;;;10249871;28;20027;-59
2024/02/08 13:07:43;;;;;;;27.38;18.48;;;;;;;;;;10252362;28;20502;-59
2024/02/08 13:12:45;;;;;;;26.38;18.23;;;;;;;;;;10251936;28;20030;-59
2024/02/08 13:17:45;;;;;;;30.05;19.23;;;;;;;;;;10251272;28;20066;-59
2024/02/08 13:22:47;;;;;;;27.15;18.60;;;;;;;;;;10250285;28;20518;-59
2024/02/08 13:27:50;;;;;;;30.48;19.02;;;;;;;;;;10252177;28;20077;-59
2024/02/08 13:32:55;;;;;;;25.83;19.35;;;;;;;;;;10251831;28;20492;-59
2024/02/08 13:38:01;;;;;;;26.08;18.50;;;;;;;;;;10252255;28;20054;-59
2024/02/08 13:43:01;;;;;;;28.60;19.17;;;;;;;;;;10250594;28;20074;-59
2024/02/08 13:48:03;;;;;;;25.08;17.95;;;;;;;;;;10247752;28;20118;-59
2024/02/08 13:53:04;;;;;;;27.75;19.92;;;;;;;;;;10250307;28;20038;-59
2024/02/08 13:58:08;;;;;;;26.83;19.08;;;;;;;;;;10250184;28;20240;-59
2024/02/08 14:03:09;;;;;;;30.15;19.75;;;;;;;;;;10246554;28;20039;-59
2024/02/08 14:08:16;;;;;;;29.17;20.30;;;;;;;;;;10246393;28;20031;-59
2024/02/08 14:13:28;;;;;;;53.67;22.60;;;;;;;;;;10250424;28;20043;-61
2024/02/08 14:18:34;;;;;;;100.57;26.85;;;;;;;;;;10250043;28;20051;-63
2024/02/08 14:23:38;;;;;;;74.70;27.08;;;;;;;;;;10248501;28;20118;-60
2024/02/08 14:28:45;;;;;;;66.63;27.77;;;;;;;;;;10248704;28;20027;-59
2024/02/08 14:33:46;;;;;;;54.28;26.98;;;;;;;;;;10249002;28;20081;-59
2024/02/08 14:38:48;;;;;;;62.17;29.25;;;;;;;;;;10247763;28;20587;-59
2024/02/08 14:43:53;;;;;;;69.15;28.98;;;;;;;;;;10247652;28;20040;-59
2024/02/08 14:48:54;;;;;;;41.30;26.40;;;;;;;;;;10248794;28;20116;-59
2024/02/08 14:53:58;;;;;;;57.45;27.65;;;;;;;;;;10248289;28;20031;-59
2024/02/08 15:04:21;;;;;;;47.63;27.83;;;;;;;;;;10248135;28;20043;-59
2024/02/08 15:14:37;;;;;;;42.15;27.05;;;;;;;;;;10248514;28;20463;-59
2024/02/08 15:19:48;;;;;;;45.90;27.38;;;;;;;;;;10247204;28;20498;-59
2024/02/08 15:24:48;;;;;;;47.38;27.42;;;;;;;;;;10246961;28;20471;-59
2024/02/08 15:29:52;;;;;;;45.97;27.20;;;;;;;;;;10246562;28;20035;-58
2024/02/08 15:44:58;;;;;;;44.20;26.65;;;;;;;;;;10246025;28;20067;-59
2024/02/08 15:49:59;;;;;;;46.30;27.55;;;;;;;;;;10246799;28;20125;-59
2024/02/08 15:55:00;;;;;;;38.72;26.55;;;;;;;;;;10246324;28;20039;-59
2024/02/08 16:00:00;;;;;;;44.20;28.25;;;;;;;;;;10246341;28;20487;-59
2024/02/08 16:05:22;;;;;;;42.20;27.73;;;;;;;;;;10245634;28;20031;-59
2024/02/08 16:10:31;;;;;;;39.85;26.70;;;;;;;;;;10245544;28;20471;-59
2024/02/08 16:20:55;;;;;;;35.72;24.15;;;;;;;;;;10244269;28;20451;-59
2024/02/08 16:26:09;;;;;;;40.40;25.13;;;;;;;;;;10245542;28;20023;-60
2024/02/08 16:31:24;;;;;;;40.83;24.73;;;;;;;;;;10245291;28;20090;-59
2024/02/08 16:41:31;;;;;;;39.65;25.85;;;;;;;;;;10244565;28;20036;-59
2024/02/08 16:46:37;;;;;;;39.42;24.75;;;;;;;;;;10244971;28;20511;-59
2024/02/08 16:51:41;;;;;;;40.63;25.98;;;;;;;;;;10245455;28;20031;-59
2024/02/08 16:56:41;;;;;;;39.65;25.70;;;;;;;;;;10244761;28;20498;-59
2024/02/08 17:02:00;;;;;;;32.40;23.75;;;;;;;;;;10245440;28;20034;-59
2024/02/08 17:07:10;;;;;;;43.58;25.27;;;;;;;;;;10244609;28;20086;-59
2024/02/08 17:12:20;;;;;;;35.00;24.30;;;;;;;;;;10245251;28;20134;-59
2024/02/08 17:17:34;;;;;;;35.03;23.05;;;;;;;;;;10240121;28;20110;-59
2024/02/08 17:22:49;;;;;;;37.60;25.58;;;;;;;;;;10241657;28;20031;-59
2024/02/08 17:28:00;;;;;;;33.28;23.50;;;;;;;;;;10242921;28;20505;-59
2024/02/08 17:33:00;;;;;;;35.33;23.15;;;;;;;;;;10245354;28;20035;-58
2024/02/08 17:38:01;;;;;;;33.55;23.23;;;;;;;;;;10244208;28;20051;-59
2024/02/08 17:43:07;;;;;;;31.20;22.25;;;;;;;;;;10242388;28;20039;-59
2024/02/08 17:48:13;;;;;;;36.60;22.25;;;;;;;;;;10247263;28;20039;-59
2024/02/08 17:53:21;;;;;;;37.83;22.67;;;;;;;;;;10238573;28;20038;-59
2024/02/08 17:58:24;;;;;;;36.63;22.95;;;;;;;;;;10248510;28;20349;-60
2024/02/08 18:03:28;;;;;;;33.75;22.02;;;;;;;;;;10250785;28;20118;-59
2024/02/08 18:08:30;;;;;;;34.08;22.25;;;;;;;;;;10250373;28;20020;-59
2024/02/08 18:13:32;;;;;;;32.50;21.35;;;;;;;;;;10249453;28;20106;-60
2024/02/08 18:18:33;;;;;;;34.60;22.20;;;;;;;;;;10244412;28;20390;-59
2024/02/08 18:23:33;;;;;;;31.23;21.27;;;;;;;;;;10250315;28;20039;-60
2024/02/08 18:28:35;;;;;;;29.63;20.80;;;;;;;;;;10248478;28;20036;-59
2024/02/08 18:33:37;;;;;;;32.65;21.30;;;;;;;;;;10248738;28;20206;-59
2024/02/08 18:38:39;;;;;;;29.95;20.85;;;;;;;;;;10246887;28;20575;-60
2024/02/08 18:43:40;;;;;;;32.15;20.08;;;;;;;;;;10248618;28;20039;-59
2024/02/08 18:48:44;;;;;;;27.00;18.85;;;;;;;;;;10248558;28;20360;-60
2024/02/08 18:53:44;;;;;;;33.55;21.42;;;;;;;;;;10249378;28;20031;-60
2024/02/08 18:58:51;;;;;;;32.08;20.58;;;;;;;;;;10247042;28;20135;-61
2024/02/08 19:03:53;;;;;;;26.30;18.45;;;;;;;;;;10246311;28;20043;-61
2024/02/08 19:08:54;;;;;;;29.00;19.98;;;;;;;;;;10243501;28;20038;-61
2024/02/08 19:13:57;;;;;;;27.25;19.13;;;;;;;;;;10247200;28;20054;-61
2024/02/08 19:19:00;;;;;;;27.40;18.80;;;;;;;;;;10244652;28;20479;-61
2024/02/08 19:24:01;;;;;;;31.65;18.77;;;;;;;;;;10247040;28;20182;-61
2024/02/08 19:29:05;;;;;;;26.23;18.67;;;;;;;;;;10235499;28;20450;-60
2024/02/08 19:34:07;;;;;;;30.10;18.95;;;;;;;;;;10244363;28;20059;-61
2024/02/08 19:39:33;;;;;;;33.38;19.55;;;;;;;;;;10238202;28;20061;-61
2024/02/08 19:44:35;;;;;;;28.80;18.27;;;;;;;;;;10246367;28;20047;-61
2024/02/08 19:49:38;;;;;;;28.00;19.10;;;;;;;;;;10246237;28;20428;-60
2024/02/08 19:54:39;;;;;;;25.98;18.60;;;;;;;;;;10244862;28;20068;-62
2024/02/08 19:59:42;;;;;;;26.35;17.85;;;;;;;;;;10247047;28;20162;-60
2024/02/08 20:04:42;;;;;;;26.08;18.45;;;;;;;;;;10240735;28;20035;-60
2024/02/08 20:09:46;;;;;;;26.83;19.08;;;;;;;;;;10244230;28;20062;-61
2024/02/08 20:14:47;;;;;;;26.25;17.95;;;;;;;;;;10244900;28;20462;-60
2024/02/08 20:19:52;;;;;;;29.63;18.42;;;;;;;;;;10245934;28;20035;-59
2024/02/08 20:24:56;;;;;;;23.45;17.10;;;;;;;;;;10244659;28;20395;-61
2024/02/08 20:29:57;;;;;;;27.08;17.45;;;;;;;;;;10245485;28;20121;-60
2024/02/08 20:34:58;;;;;;;29.33;18.92;;;;;;;;;;10244471;28;20358;-61
2024/02/08 20:39:59;;;;;;;24.73;17.63;;;;;;;;;;10243117;28;20286;-61
2024/02/08 20:45:00;;;;;;;25.20;17.77;;;;;;;;;;10244037;28;20050;-60
2024/02/08 20:50:04;;;;;;;27.35;17.63;;;;;;;;;;10245371;28;20031;-61
2024/02/08 20:55:05;;;;;;;28.98;20.10;;;;;;;;;;10244371;28;20050;-61
2024/02/08 21:00:06;;;;;;;28.27;19.42;;;;;;;;;;10237632;28;20130;-60
2024/02/08 21:05:07;;;;;;;28.42;18.08;;;;;;;;;;10242564;28;20031;-60
2024/02/08 21:10:10;;;;;;;27.52;17.20;;;;;;;;;;10240653;28;20066;-59
2024/02/08 21:15:12;;;;;;;28.38;18.63;;;;;;;;;;10243336;28;20054;-60
2024/02/08 21:20:15;;;;;;;27.30;19.25;;;;;;;;;;10243850;28;20043;-60
2024/02/08 21:25:18;;;;;;;28.35;19.23;;;;;;;;;;10252196;28;20056;-60
2024/02/08 21:30:20;;;;;;;26.27;19.27;;;;;;;;;;10251519;28;20046;-59
2024/02/08 21:35:21;;;;;;;28.98;17.70;;;;;;;;;;10241606;28;20063;-61
2024/02/08 21:40:22;;;;;;;25.95;17.90;;;;;;;;;;10252716;28;20036;-61
2024/02/08 21:45:23;;;;;;;28.35;18.33;;;;;;;;;;10250896;28;20027;-61
2024/02/08 21:50:23;;;;;;;26.48;18.58;;;;;;;;;;10250495;28;20034;-62
2024/02/08 21:55:24;;;;;;;24.15;17.05;;;;;;;;;;10239648;28;20042;-63
2024/02/08 22:00:30;;;;;;;26.00;16.95;;;;;;;;;;10250968;28;20058;-61
2024/02/08 22:05:30;;;;;;;23.08;16.08;;;;;;;;;;10245170;28;20139;-64
2024/02/08 22:10:31;;;;;;;24.92;15.75;;;;;;;;;;10242487;28;20083;-61
2024/02/08 22:15:33;;;;;;;28.85;15.90;;;;;;;;;;10249678;28;20034;-61
2024/02/08 22:20:34;;;;;;;25.50;15.80;;;;;;;;;;10251327;28;20023;-62
2024/02/08 22:25:35;;;;;;;23.15;15.55;;;;;;;;;;10249692;28;20023;-61
2024/02/08 22:30:39;;;;;;;26.42;16.27;;;;;;;;;;10249801;28;20082;-61
2024/02/08 22:35:40;;;;;;;20.98;15.15;;;;;;;;;;10246488;28;20102;-62
2024/02/08 22:40:42;;;;;;;22.27;15.85;;;;;;;;;;10249961;28;20039;-61
2024/02/08 22:45:43;;;;;;;26.45;16.08;;;;;;;;;;10246472;28;20122;-62
2024/02/08 22:50:46;;;;;;;24.75;15.23;;;;;;;;;;10246051;28;20027;-62
2024/02/08 22:55:49;;;;;;;25.75;15.13;;;;;;;;;;10238699;28;20387;-62
2024/02/08 23:00:49;;;;;;;22.42;15.10;;;;;;;;;;10248337;28;20036;-62
2024/02/08 23:05:54;;;;;;;21.23;14.65;;;;;;;;;;10239499;28;20057;-62
2024/02/08 23:10:54;;;;;;;21.92;13.95;;;;;;;;;;10245750;28;20067;-61
2024/02/08 23:15:56;;;;;;;24.65;15.10;;;;;;;;;;10246583;28;20030;-61
2024/02/08 23:20:57;;;;;;;19.50;13.90;;;;;;;;;;10246219;28;20480;-63
2024/02/08 23:25:57;;;;;;;20.02;13.43;;;;;;;;;;10247550;28;20035;-62
2024/02/08 23:30:58;;;;;;;18.60;14.32;;;;;;;;;;10246009;28;20046;-62
2024/02/08 23:35:58;;;;;;;20.42;13.75;;;;;;;;;;10246985;28;20050;-62
2024/02/08 23:41:03;;;;;;;17.80;13.65;;;;;;;;;;10246172;28;20027;-62
2024/02/08 23:46:07;;;;;;;21.48;14.05;;;;;;;;;;10246105;28;20410;-62
2024/02/08 23:51:08;;;;;;;24.75;14.45;;;;;;;;;;10245337;28;20039;-62
2024/02/08 23:56:08;;;;;;;20.45;14.48;;;;;;;;;;10244849;28;20059;-63
